sensor_id;sensor_type;location;lat;lon;timestamp;P1;durP1;ratioP1;P2;durP2;ratioP2
16270;SDS011;8243;49.048;8.396;2023-08-30T00:00:37;8.33;;;6.83;;
16270;SDS011;8243;49.048;8.396;2023-08-30T00:03:04;8.73;;;7.60;;
16270;SDS011;8243;49.048;8.396;2023-08-30T00:05:31;7.37;;;6.67;;
16270;SDS011;8243;49.048;8.396;2023-08-30T00:07:56;7.87;;;7.27;;
16270;SDS011;8243;49.048;8.396;2023-08-30T00:10:22;7.87;;;7.23;;
16270;SDS011;8243;49.048;8.396;2023-08-30T00:12:48;8.37;;;7.57;;
16270;SDS011;8243;49.048;8.396;2023-08-30T00:15:13;8.37;;;7.57;;
16270;SDS011;8243;49.048;8.396;2023-08-30T00:17:40;7.57;;;6.90;;
16270;SDS011;8243;49.048;8.396;2023-08-30T00:20:06;8.57;;;7.00;;
16270;SDS011;8243;49.048;8.396;2023-08-30T00:22:33;8.07;;;7.40;;
16270;SDS011;8243;49.048;8.396;2023-08-30T00:24:59;9.33;;;7.27;;
16270;SDS011;8243;49.048;8.396;2023-08-30T00:27:25;8.37;;;7.67;;
16270;SDS011;8243;49.048;8.396;2023-08-30T00:29:50;7.73;;;7.03;;
16270;SDS011;8243;49.048;8.396;2023-08-30T00:32:16;8.70;;;6.73;;
16270;SDS011;8243;49.048;8.396;2023-08-30T00:34:42;7.90;;;6.57;;
16270;SDS011;8243;49.048;8.396;2023-08-30T00:37:08;9.63;;;6.90;;
16270;SDS011;8243;49.048;8.396;2023-08-30T00:39:34;7.43;;;6.73;;
16270;SDS011;8243;49.048;8.396;2023-08-30T00:42:02;7.73;;;7.03;;
16270;SDS011;8243;49.048;8.396;2023-08-30T00:44:30;7.63;;;7.03;;
16270;SDS011;8243;49.048;8.396;2023-08-30T00:46:57;7.50;;;6.80;;
16270;SDS011;8243;49.048;8.396;2023-08-30T00:49:22;7.47;;;6.77;;
16270;SDS011;8243;49.048;8.396;2023-08-30T00:51:48;7.27;;;6.67;;
16270;SDS011;8243;49.048;8.396;2023-08-30T00:54:14;7.50;;;6.90;;
16270;SDS011;8243;49.048;8.396;2023-08-30T00:56:41;7.23;;;6.63;;
16270;SDS011;8243;49.048;8.396;2023-08-30T00:59:06;7.53;;;6.77;;
16270;SDS011;8243;49.048;8.396;2023-08-30T01:01:32;6.97;;;6.37;;
16270;SDS011;8243;49.048;8.396;2023-08-30T01:03:58;7.47;;;6.87;;
16270;SDS011;8243;49.048;8.396;2023-08-30T01:06:23;7.77;;;7.03;;
16270;SDS011;8243;49.048;8.396;2023-08-30T01:08:49;7.67;;;6.97;;
16270;SDS011;8243;49.048;8.396;2023-08-30T01:11:29;7.43;;;6.67;;
16270;SDS011;8243;49.048;8.396;2023-08-30T01:14:04;8.03;;;7.27;;
16270;SDS011;8243;49.048;8.396;2023-08-30T01:16:33;7.03;;;6.43;;
16270;SDS011;8243;49.048;8.396;2023-08-30T01:19:01;6.73;;;6.23;;
16270;SDS011;8243;49.048;8.396;2023-08-30T01:24:29;7.57;;;6.77;;
16270;SDS011;8243;49.048;8.396;2023-08-30T01:27:08;6.90;;;6.30;;
16270;SDS011;8243;49.048;8.396;2023-08-30T01:29:36;7.00;;;6.07;;
16270;SDS011;8243;49.048;8.396;2023-08-30T01:32:05;8.03;;;7.33;;
16270;SDS011;8243;49.048;8.396;2023-08-30T01:34:32;8.37;;;6.30;;
16270;SDS011;8243;49.048;8.396;2023-08-30T01:36:59;7.13;;;6.53;;
16270;SDS011;8243;49.048;8.396;2023-08-30T01:39:25;7.00;;;6.30;;
16270;SDS011;8243;49.048;8.396;2023-08-30T01:41:52;7.10;;;6.40;;
16270;SDS011;8243;49.048;8.396;2023-08-30T01:44:24;7.20;;;6.60;;
16270;SDS011;8243;49.048;8.396;2023-08-30T01:46:52;8.97;;;6.47;;
16270;SDS011;8243;49.048;8.396;2023-08-30T01:49:18;7.00;;;6.47;;
16270;SDS011;8243;49.048;8.396;2023-08-30T01:51:45;7.20;;;6.17;;
16270;SDS011;8243;49.048;8.396;2023-08-30T01:54:11;7.63;;;6.80;;
16270;SDS011;8243;49.048;8.396;2023-08-30T01:56:42;7.20;;;6.50;;
16270;SDS011;8243;49.048;8.396;2023-08-30T01:59:08;6.60;;;6.10;;
16270;SDS011;8243;49.048;8.396;2023-08-30T02:01:34;6.70;;;6.10;;
16270;SDS011;8243;49.048;8.396;2023-08-30T02:04:00;7.13;;;6.53;;
16270;SDS011;8243;49.048;8.396;2023-08-30T02:06:48;6.90;;;6.30;;
16270;SDS011;8243;49.048;8.396;2023-08-30T02:09:29;7.30;;;6.57;;
16270;SDS011;8243;49.048;8.396;2023-08-30T02:12:12;7.47;;;6.73;;
16270;SDS011;8243;49.048;8.396;2023-08-30T02:14:44;7.00;;;6.30;;
16270;SDS011;8243;49.048;8.396;2023-08-30T02:17:13;7.57;;;6.60;;
16270;SDS011;8243;49.048;8.396;2023-08-30T02:19:40;6.97;;;6.37;;
16270;SDS011;8243;49.048;8.396;2023-08-30T02:22:06;7.23;;;6.53;;
16270;SDS011;8243;49.048;8.396;2023-08-30T02:24:32;6.73;;;6.23;;
16270;SDS011;8243;49.048;8.396;2023-08-30T02:26:57;7.80;;;6.30;;
16270;SDS011;8243;49.048;8.396;2023-08-30T02:29:23;6.80;;;6.10;;
16270;SDS011;8243;49.048;8.396;2023-08-30T02:31:49;6.53;;;6.03;;
16270;SDS011;8243;49.048;8.396;2023-08-30T02:34:16;6.70;;;6.10;;
16270;SDS011;8243;49.048;8.396;2023-08-30T02:36:41;7.00;;;6.30;;
16270;SDS011;8243;49.048;8.396;2023-08-30T02:39:07;6.40;;;5.90;;
16270;SDS011;8243;49.048;8.396;2023-08-30T02:41:33;7.00;;;6.40;;
16270;SDS011;8243;49.048;8.396;2023-08-30T02:43:59;7.10;;;6.23;;
16270;SDS011;8243;49.048;8.396;2023-08-30T02:46:25;7.00;;;6.40;;
16270;SDS011;8243;49.048;8.396;2023-08-30T02:48:50;6.87;;;6.27;;
16270;SDS011;8243;49.048;8.396;2023-08-30T02:51:16;6.87;;;6.27;;
16270;SDS011;8243;49.048;8.396;2023-08-30T02:53:42;6.67;;;6.07;;
16270;SDS011;8243;49.048;8.396;2023-08-30T02:56:08;7.00;;;6.40;;
16270;SDS011;8243;49.048;8.396;2023-08-30T02:58:33;6.73;;;6.13;;
16270;SDS011;8243;49.048;8.396;2023-08-30T03:00:59;7.30;;;6.60;;
16270;SDS011;8243;49.048;8.396;2023-08-30T03:03:27;7.00;;;6.47;;
16270;SDS011;8243;49.048;8.396;2023-08-30T03:05:53;7.30;;;6.70;;
16270;SDS011;8243;49.048;8.396;2023-08-30T03:08:18;6.93;;;6.43;;
16270;SDS011;8243;49.048;8.396;2023-08-30T03:10:44;7.43;;;6.83;;
16270;SDS011;8243;49.048;8.396;2023-08-30T03:13:10;7.63;;;6.93;;
16270;SDS011;8243;49.048;8.396;2023-08-30T03:15:36;9.27;;;6.90;;
16270;SDS011;8243;49.048;8.396;2023-08-30T03:18:01;8.07;;;7.47;;
16270;SDS011;8243;49.048;8.396;2023-08-30T03:20:27;8.00;;;7.40;;
16270;SDS011;8243;49.048;8.396;2023-08-30T03:22:56;7.37;;;6.60;;
16270;SDS011;8243;49.048;8.396;2023-08-30T03:25:23;7.77;;;6.93;;
16270;SDS011;8243;49.048;8.396;2023-08-30T03:27:48;7.60;;;7.00;;
16270;SDS011;8243;49.048;8.396;2023-08-30T03:30:14;8.10;;;7.50;;
16270;SDS011;8243;49.048;8.396;2023-08-30T03:32:40;7.63;;;7.03;;
16270;SDS011;8243;49.048;8.396;2023-08-30T03:35:05;8.33;;;7.53;;
16270;SDS011;8243;49.048;8.396;2023-08-30T03:37:31;7.67;;;6.97;;
16270;SDS011;8243;49.048;8.396;2023-08-30T03:39:57;7.63;;;7.03;;
16270;SDS011;8243;49.048;8.396;2023-08-30T03:42:22;8.67;;;7.97;;
16270;SDS011;8243;49.048;8.396;2023-08-30T03:44:48;7.53;;;6.93;;
16270;SDS011;8243;49.048;8.396;2023-08-30T03:47:14;7.73;;;6.93;;
16270;SDS011;8243;49.048;8.396;2023-08-30T03:49:39;7.67;;;7.07;;
16270;SDS011;8243;49.048;8.396;2023-08-30T03:52:05;7.63;;;6.93;;
16270;SDS011;8243;49.048;8.396;2023-08-30T03:54:31;10.30;;;7.77;;
16270;SDS011;8243;49.048;8.396;2023-08-30T03:56:57;7.93;;;7.23;;
16270;SDS011;8243;49.048;8.396;2023-08-30T03:59:23;8.57;;;7.63;;
16270;SDS011;8243;49.048;8.396;2023-08-30T04:01:52;7.43;;;6.83;;
16270;SDS011;8243;49.048;8.396;2023-08-30T04:04:18;9.03;;;8.13;;
16270;SDS011;8243;49.048;8.396;2023-08-30T04:06:44;8.87;;;8.10;;
16270;SDS011;8243;49.048;8.396;2023-08-30T04:09:09;7.70;;;7.07;;
16270;SDS011;8243;49.048;8.396;2023-08-30T04:11:35;8.63;;;7.83;;
16270;SDS011;8243;49.048;8.396;2023-08-30T04:14:01;8.70;;;7.60;;
16270;SDS011;8243;49.048;8.396;2023-08-30T04:16:27;8.47;;;7.73;;
16270;SDS011;8243;49.048;8.396;2023-08-30T04:18:53;8.40;;;7.80;;
16270;SDS011;8243;49.048;8.396;2023-08-30T04:21:19;8.57;;;7.53;;
16270;SDS011;8243;49.048;8.396;2023-08-30T04:23:45;9.07;;;8.17;;
16270;SDS011;8243;49.048;8.396;2023-08-30T04:26:10;9.13;;;8.23;;
16270;SDS011;8243;49.048;8.396;2023-08-30T04:28:38;8.67;;;7.97;;
16270;SDS011;8243;49.048;8.396;2023-08-30T04:31:03;8.53;;;7.83;;
16270;SDS011;8243;49.048;8.396;2023-08-30T04:33:29;8.87;;;8.07;;
16270;SDS011;8243;49.048;8.396;2023-08-30T04:35:55;8.90;;;8.10;;
16270;SDS011;8243;49.048;8.396;2023-08-30T04:38:21;9.07;;;8.17;;
16270;SDS011;8243;49.048;8.396;2023-08-30T04:40:47;8.57;;;7.87;;
16270;SDS011;8243;49.048;8.396;2023-08-30T04:43:13;9.37;;;8.13;;
16270;SDS011;8243;49.048;8.396;2023-08-30T04:45:40;8.77;;;8.03;;
16270;SDS011;8243;49.048;8.396;2023-08-30T04:48:05;8.47;;;7.80;;
16270;SDS011;8243;49.048;8.396;2023-08-30T04:50:32;8.93;;;8.23;;
16270;SDS011;8243;49.048;8.396;2023-08-30T04:52:57;8.87;;;8.07;;
16270;SDS011;8243;49.048;8.396;2023-08-30T04:55:24;9.00;;;8.10;;
16270;SDS011;8243;49.048;8.396;2023-08-30T04:57:50;8.10;;;7.40;;
16270;SDS011;8243;49.048;8.396;2023-08-30T05:00:16;8.43;;;7.80;;
16270;SDS011;8243;49.048;8.396;2023-08-30T05:02:42;8.50;;;7.70;;
16270;SDS011;8243;49.048;8.396;2023-08-30T05:05:11;8.33;;;7.57;;
16270;SDS011;8243;49.048;8.396;2023-08-30T05:07:37;8.97;;;7.70;;
16270;SDS011;8243;49.048;8.396;2023-08-30T05:10:03;7.50;;;6.87;;
16270;SDS011;8243;49.048;8.396;2023-08-30T05:12:29;7.30;;;6.60;;
16270;SDS011;8243;49.048;8.396;2023-08-30T05:14:54;8.20;;;7.43;;
16270;SDS011;8243;49.048;8.396;2023-08-30T05:17:20;7.70;;;7.10;;
16270;SDS011;8243;49.048;8.396;2023-08-30T05:19:46;8.07;;;7.37;;
16270;SDS011;8243;49.048;8.396;2023-08-30T05:22:11;7.87;;;7.17;;
16270;SDS011;8243;49.048;8.396;2023-08-30T05:24:37;7.23;;;6.63;;
16270;SDS011;8243;49.048;8.396;2023-08-30T05:27:03;8.00;;;7.20;;
16270;SDS011;8243;49.048;8.396;2023-08-30T05:29:29;7.30;;;6.70;;
16270;SDS011;8243;49.048;8.396;2023-08-30T05:31:54;8.23;;;7.53;;
16270;SDS011;8243;49.048;8.396;2023-08-30T05:34:20;8.40;;;7.60;;
16270;SDS011;8243;49.048;8.396;2023-08-30T05:36:46;7.90;;;7.20;;
16270;SDS011;8243;49.048;8.396;2023-08-30T05:39:12;8.07;;;6.47;;
16270;SDS011;8243;49.048;8.396;2023-08-30T05:41:37;7.50;;;6.90;;
16270;SDS011;8243;49.048;8.396;2023-08-30T05:44:03;8.00;;;7.20;;
16270;SDS011;8243;49.048;8.396;2023-08-30T05:49:20;7.93;;;7.33;;
16270;SDS011;8243;49.048;8.396;2023-08-30T05:51:45;8.33;;;7.43;;
16270;SDS011;8243;49.048;8.396;2023-08-30T05:54:12;7.97;;;7.20;;
16270;SDS011;8243;49.048;8.396;2023-08-30T05:56:38;10.83;;;7.20;;
16270;SDS011;8243;49.048;8.396;2023-08-30T05:59:03;9.13;;;6.93;;
16270;SDS011;8243;49.048;8.396;2023-08-30T06:01:29;8.23;;;7.40;;
16270;SDS011;8243;49.048;8.396;2023-08-30T06:03:55;7.50;;;6.80;;
16270;SDS011;8243;49.048;8.396;2023-08-30T06:06:21;7.07;;;6.47;;
16270;SDS011;8243;49.048;8.396;2023-08-30T06:08:47;8.33;;;6.53;;
16270;SDS011;8243;49.048;8.396;2023-08-30T06:11:13;7.37;;;6.67;;
16270;SDS011;8243;49.048;8.396;2023-08-30T06:13:40;6.97;;;5.90;;
16270;SDS011;8243;49.048;8.396;2023-08-30T06:16:05;6.07;;;5.57;;
16270;SDS011;8243;49.048;8.396;2023-08-30T06:18:31;6.53;;;5.30;;
16270;SDS011;8243;49.048;8.396;2023-08-30T06:20:57;5.80;;;5.17;;
16270;SDS011;8243;49.048;8.396;2023-08-30T06:23:23;5.50;;;5.10;;
16270;SDS011;8243;49.048;8.396;2023-08-30T06:25:55;5.77;;;5.30;;
16270;SDS011;8243;49.048;8.396;2023-08-30T06:28:22;6.43;;;4.63;;
16270;SDS011;8243;49.048;8.396;2023-08-30T06:33:35;4.80;;;4.40;;
16270;SDS011;8243;49.048;8.396;2023-08-30T06:36:01;5.27;;;4.30;;
16270;SDS011;8243;49.048;8.396;2023-08-30T06:38:28;4.10;;;3.73;;
16270;SDS011;8243;49.048;8.396;2023-08-30T06:40:54;4.57;;;4.10;;
16270;SDS011;8243;49.048;8.396;2023-08-30T06:43:23;5.90;;;3.80;;
16270;SDS011;8243;49.048;8.396;2023-08-30T06:45:49;4.47;;;4.07;;
16270;SDS011;8243;49.048;8.396;2023-08-30T06:48:15;4.10;;;3.70;;
16270;SDS011;8243;49.048;8.396;2023-08-30T06:50:41;5.73;;;4.10;;
16270;SDS011;8243;49.048;8.396;2023-08-30T06:53:08;4.10;;;3.70;;
16270;SDS011;8243;49.048;8.396;2023-08-30T06:55:34;3.77;;;3.37;;
16270;SDS011;8243;49.048;8.396;2023-08-30T06:58:02;4.30;;;3.90;;
16270;SDS011;8243;49.048;8.396;2023-08-30T07:00:27;3.57;;;3.13;;
16270;SDS011;8243;49.048;8.396;2023-08-30T07:02:53;5.63;;;3.60;;
16270;SDS011;8243;49.048;8.396;2023-08-30T07:05:19;5.00;;;3.23;;
16270;SDS011;8243;49.048;8.396;2023-08-30T07:07:46;3.33;;;3.03;;
16270;SDS011;8243;49.048;8.396;2023-08-30T07:10:12;3.23;;;2.80;;
16270;SDS011;8243;49.048;8.396;2023-08-30T07:12:37;3.00;;;2.70;;
16270;SDS011;8243;49.048;8.396;2023-08-30T07:15:03;4.73;;;3.23;;
16270;SDS011;8243;49.048;8.396;2023-08-30T07:17:30;3.10;;;2.90;;
16270;SDS011;8243;49.048;8.396;2023-08-30T07:19:56;3.40;;;3.00;;
16270;SDS011;8243;49.048;8.396;2023-08-30T07:22:21;3.70;;;2.90;;
16270;SDS011;8243;49.048;8.396;2023-08-30T07:24:47;5.40;;;2.90;;
16270;SDS011;8243;49.048;8.396;2023-08-30T07:27:13;2.70;;;2.40;;
16270;SDS011;8243;49.048;8.396;2023-08-30T07:29:38;2.60;;;2.40;;
16270;SDS011;8243;49.048;8.396;2023-08-30T07:32:08;2.90;;;2.63;;
16270;SDS011;8243;49.048;8.396;2023-08-30T07:34:34;2.47;;;2.27;;
16270;SDS011;8243;49.048;8.396;2023-08-30T07:37:01;3.47;;;2.50;;
16270;SDS011;8243;49.048;8.396;2023-08-30T07:39:26;2.60;;;2.40;;
16270;SDS011;8243;49.048;8.396;2023-08-30T07:41:52;2.57;;;2.37;;
16270;SDS011;8243;49.048;8.396;2023-08-30T07:44:18;2.60;;;2.40;;
16270;SDS011;8243;49.048;8.396;2023-08-30T07:46:45;3.80;;;2.27;;
16270;SDS011;8243;49.048;8.396;2023-08-30T07:49:11;2.90;;;2.40;;
16270;SDS011;8243;49.048;8.396;2023-08-30T07:51:37;2.20;;;2.00;;
16270;SDS011;8243;49.048;8.396;2023-08-30T07:54:02;2.20;;;2.00;;
16270;SDS011;8243;49.048;8.396;2023-08-30T07:56:28;3.23;;;2.03;;
16270;SDS011;8243;49.048;8.396;2023-08-30T07:58:54;2.43;;;2.27;;
16270;SDS011;8243;49.048;8.396;2023-08-30T08:01:20;2.30;;;2.10;;
16270;SDS011;8243;49.048;8.396;2023-08-30T08:03:45;3.07;;;1.93;;
16270;SDS011;8243;49.048;8.396;2023-08-30T08:06:12;2.40;;;2.20;;
16270;SDS011;8243;49.048;8.396;2023-08-30T08:08:38;2.97;;;2.50;;
16270;SDS011;8243;49.048;8.396;2023-08-30T08:11:03;3.13;;;2.07;;
16270;SDS011;8243;49.048;8.396;2023-08-30T08:13:29;2.23;;;2.00;;
16270;SDS011;8243;49.048;8.396;2023-08-30T08:15:56;2.53;;;2.33;;
16270;SDS011;8243;49.048;8.396;2023-08-30T08:18:24;4.07;;;2.30;;
16270;SDS011;8243;49.048;8.396;2023-08-30T08:20:49;4.10;;;2.00;;
16270;SDS011;8243;49.048;8.396;2023-08-30T08:23:15;4.27;;;2.43;;
16270;SDS011;8243;49.048;8.396;2023-08-30T08:25:41;2.87;;;2.20;;
16270;SDS011;8243;49.048;8.396;2023-08-30T08:28:06;2.90;;;2.03;;
16270;SDS011;8243;49.048;8.396;2023-08-30T08:30:32;2.40;;;2.20;;
16270;SDS011;8243;49.048;8.396;2023-08-30T08:32:58;3.80;;;2.00;;
16270;SDS011;8243;49.048;8.396;2023-08-30T08:35:24;4.27;;;2.03;;
16270;SDS011;8243;49.048;8.396;2023-08-30T08:37:50;3.27;;;2.30;;
16270;SDS011;8243;49.048;8.396;2023-08-30T08:40:17;2.37;;;2.00;;
16270;SDS011;8243;49.048;8.396;2023-08-30T08:42:43;3.20;;;2.27;;
16270;SDS011;8243;49.048;8.396;2023-08-30T08:45:10;2.07;;;1.90;;
16270;SDS011;8243;49.048;8.396;2023-08-30T08:47:38;2.40;;;1.97;;
16270;SDS011;8243;49.048;8.396;2023-08-30T08:50:04;2.07;;;1.80;;
16270;SDS011;8243;49.048;8.396;2023-08-30T08:52:30;2.20;;;2.00;;
16270;SDS011;8243;49.048;8.396;2023-08-30T08:54:56;2.60;;;2.00;;
16270;SDS011;8243;49.048;8.396;2023-08-30T08:57:24;2.30;;;2.20;;
16270;SDS011;8243;49.048;8.396;2023-08-30T08:59:51;3.20;;;2.50;;
16270;SDS011;8243;49.048;8.396;2023-08-30T09:02:16;3.27;;;2.20;;
16270;SDS011;8243;49.048;8.396;2023-08-30T09:04:42;2.50;;;2.00;;
16270;SDS011;8243;49.048;8.396;2023-08-30T09:07:09;3.93;;;2.00;;
16270;SDS011;8243;49.048;8.396;2023-08-30T09:09:36;2.37;;;2.17;;
16270;SDS011;8243;49.048;8.396;2023-08-30T09:12:01;3.33;;;2.20;;
16270;SDS011;8243;49.048;8.396;2023-08-30T09:14:28;5.23;;;2.20;;
16270;SDS011;8243;49.048;8.396;2023-08-30T09:16:57;2.63;;;2.10;;
16270;SDS011;8243;49.048;8.396;2023-08-30T09:19:25;3.83;;;2.30;;
16270;SDS011;8243;49.048;8.396;2023-08-30T09:21:55;3.23;;;2.33;;
16270;SDS011;8243;49.048;8.396;2023-08-30T09:24:24;3.27;;;2.00;;
16270;SDS011;8243;49.048;8.396;2023-08-30T09:26:52;2.20;;;2.00;;
16270;SDS011;8243;49.048;8.396;2023-08-30T09:29:19;2.77;;;2.30;;
16270;SDS011;8243;49.048;8.396;2023-08-30T09:31:49;2.13;;;1.93;;
16270;SDS011;8243;49.048;8.396;2023-08-30T09:34:16;2.40;;;2.20;;
16270;SDS011;8243;49.048;8.396;2023-08-30T09:36:46;2.50;;;2.30;;
16270;SDS011;8243;49.048;8.396;2023-08-30T09:39:14;3.77;;;2.30;;
16270;SDS011;8243;49.048;8.396;2023-08-30T09:41:44;3.73;;;2.23;;
16270;SDS011;8243;49.048;8.396;2023-08-30T09:44:17;2.33;;;2.13;;
16270;SDS011;8243;49.048;8.396;2023-08-30T09:46:52;2.30;;;2.10;;
16270;SDS011;8243;49.048;8.396;2023-08-30T09:49:23;3.13;;;2.50;;
16270;SDS011;8243;49.048;8.396;2023-08-30T09:51:51;2.40;;;2.20;;
16270;SDS011;8243;49.048;8.396;2023-08-30T09:54:21;2.77;;;2.30;;
16270;SDS011;8243;49.048;8.396;2023-08-30T09:56:49;2.70;;;2.30;;
16270;SDS011;8243;49.048;8.396;2023-08-30T09:59:17;2.83;;;2.47;;
16270;SDS011;8243;49.048;8.396;2023-08-30T10:01:44;3.13;;;2.33;;
16270;SDS011;8243;49.048;8.396;2023-08-30T10:04:13;4.40;;;2.47;;
16270;SDS011;8243;49.048;8.396;2023-08-30T10:06:39;3.07;;;2.20;;
16270;SDS011;8243;49.048;8.396;2023-08-30T10:09:06;2.37;;;2.17;;
16270;SDS011;8243;49.048;8.396;2023-08-30T10:11:36;2.30;;;2.10;;
16270;SDS011;8243;49.048;8.396;2023-08-30T10:14:03;2.53;;;2.33;;
16270;SDS011;8243;49.048;8.396;2023-08-30T10:16:30;2.60;;;2.37;;
16270;SDS011;8243;49.048;8.396;2023-08-30T10:19:03;4.63;;;2.27;;
16270;SDS011;8243;49.048;8.396;2023-08-30T10:21:34;2.50;;;2.17;;
16270;SDS011;8243;49.048;8.396;2023-08-30T10:24:03;3.80;;;2.77;;
16270;SDS011;8243;49.048;8.396;2023-08-30T10:26:32;3.30;;;2.30;;
16270;SDS011;8243;49.048;8.396;2023-08-30T10:28:58;2.73;;;2.50;;
16270;SDS011;8243;49.048;8.396;2023-08-30T10:31:27;3.13;;;2.33;;
16270;SDS011;8243;49.048;8.396;2023-08-30T10:33:53;2.90;;;2.60;;
16270;SDS011;8243;49.048;8.396;2023-08-30T10:36:25;3.20;;;2.50;;
16270;SDS011;8243;49.048;8.396;2023-08-30T10:38:52;2.67;;;2.20;;
16270;SDS011;8243;49.048;8.396;2023-08-30T10:41:20;3.03;;;2.50;;
16270;SDS011;8243;49.048;8.396;2023-08-30T10:43:51;2.60;;;2.40;;
16270;SDS011;8243;49.048;8.396;2023-08-30T10:46:28;2.97;;;2.60;;
16270;SDS011;8243;49.048;8.396;2023-08-30T10:49:07;3.77;;;2.37;;
16270;SDS011;8243;49.048;8.396;2023-08-30T10:51:35;2.50;;;2.30;;
16270;SDS011;8243;49.048;8.396;2023-08-30T10:54:09;2.57;;;2.37;;
16270;SDS011;8243;49.048;8.396;2023-08-30T10:56:47;3.43;;;2.50;;
16270;SDS011;8243;49.048;8.396;2023-08-30T10:59:16;2.90;;;2.63;;
16270;SDS011;8243;49.048;8.396;2023-08-30T11:01:43;2.83;;;2.53;;
16270;SDS011;8243;49.048;8.396;2023-08-30T11:04:19;3.33;;;2.70;;
16270;SDS011;8243;49.048;8.396;2023-08-30T11:06:47;2.67;;;2.47;;
16270;SDS011;8243;49.048;8.396;2023-08-30T11:09:15;3.07;;;2.70;;
16270;SDS011;8243;49.048;8.396;2023-08-30T11:11:43;2.43;;;2.23;;
16270;SDS011;8243;49.048;8.396;2023-08-30T11:14:10;3.63;;;2.20;;
16270;SDS011;8243;49.048;8.396;2023-08-30T11:16:37;2.73;;;2.20;;
16270;SDS011;8243;49.048;8.396;2023-08-30T11:19:04;2.63;;;2.43;;
16270;SDS011;8243;49.048;8.396;2023-08-30T11:21:32;2.90;;;2.70;;
16270;SDS011;8243;49.048;8.396;2023-08-30T11:24:18;2.70;;;2.20;;
16270;SDS011;8243;49.048;8.396;2023-08-30T11:26:44;3.00;;;2.10;;
16270;SDS011;8243;49.048;8.396;2023-08-30T11:29:10;5.50;;;2.40;;
16270;SDS011;8243;49.048;8.396;2023-08-30T11:31:35;2.33;;;2.13;;
16270;SDS011;8243;49.048;8.396;2023-08-30T11:34:01;2.10;;;1.90;;
16270;SDS011;8243;49.048;8.396;2023-08-30T11:36:28;2.40;;;2.20;;
16270;SDS011;8243;49.048;8.396;2023-08-30T11:38:55;3.23;;;2.20;;
16270;SDS011;8243;49.048;8.396;2023-08-30T11:41:25;4.13;;;2.13;;
16270;SDS011;8243;49.048;8.396;2023-08-30T11:43:51;2.33;;;2.20;;
16270;SDS011;8243;49.048;8.396;2023-08-30T11:46:18;6.37;;;2.47;;
16270;SDS011;8243;49.048;8.396;2023-08-30T11:48:44;2.97;;;2.00;;
16270;SDS011;8243;49.048;8.396;2023-08-30T11:51:11;2.67;;;1.97;;
16270;SDS011;8243;49.048;8.396;2023-08-30T11:53:38;2.20;;;2.03;;
16270;SDS011;8243;49.048;8.396;2023-08-30T11:56:06;2.73;;;2.30;;
16270;SDS011;8243;49.048;8.396;2023-08-30T11:58:33;3.63;;;2.13;;
16270;SDS011;8243;49.048;8.396;2023-08-30T12:01:00;3.87;;;2.43;;
16270;SDS011;8243;49.048;8.396;2023-08-30T12:03:27;2.13;;;1.93;;
16270;SDS011;8243;49.048;8.396;2023-08-30T12:05:53;2.80;;;2.30;;
16270;SDS011;8243;49.048;8.396;2023-08-30T12:08:26;2.30;;;2.10;;
16270;SDS011;8243;49.048;8.396;2023-08-30T12:10:54;2.30;;;2.10;;
16270;SDS011;8243;49.048;8.396;2023-08-30T12:13:28;2.60;;;2.40;;
16270;SDS011;8243;49.048;8.396;2023-08-30T12:15:56;2.67;;;2.20;;
16270;SDS011;8243;49.048;8.396;2023-08-30T12:18:22;2.37;;;2.17;;
16270;SDS011;8243;49.048;8.396;2023-08-30T12:21:12;1.90;;;1.80;;
16270;SDS011;8243;49.048;8.396;2023-08-30T12:23:39;3.80;;;2.10;;
16270;SDS011;8243;49.048;8.396;2023-08-30T12:26:06;2.10;;;1.90;;
16270;SDS011;8243;49.048;8.396;2023-08-30T12:28:37;4.37;;;2.03;;
16270;SDS011;8243;49.048;8.396;2023-08-30T12:31:05;1.87;;;1.77;;
16270;SDS011;8243;49.048;8.396;2023-08-30T12:33:34;3.37;;;2.10;;
16270;SDS011;8243;49.048;8.396;2023-08-30T12:36:00;2.13;;;1.93;;
16270;SDS011;8243;49.048;8.396;2023-08-30T12:38:26;2.17;;;1.97;;
16270;SDS011;8243;49.048;8.396;2023-08-30T12:40:55;1.80;;;1.70;;
16270;SDS011;8243;49.048;8.396;2023-08-30T12:43:22;2.20;;;2.00;;
16270;SDS011;8243;49.048;8.396;2023-08-30T12:45:48;2.70;;;1.87;;
16270;SDS011;8243;49.048;8.396;2023-08-30T12:48:15;2.43;;;2.23;;
16270;SDS011;8243;49.048;8.396;2023-08-30T12:50:43;2.10;;;1.90;;
16270;SDS011;8243;49.048;8.396;2023-08-30T12:53:11;2.10;;;1.87;;
16270;SDS011;8243;49.048;8.396;2023-08-30T12:55:37;2.73;;;1.90;;
16270;SDS011;8243;49.048;8.396;2023-08-30T12:58:05;4.07;;;2.00;;
16270;SDS011;8243;49.048;8.396;2023-08-30T13:00:31;3.10;;;2.07;;
16270;SDS011;8243;49.048;8.396;2023-08-30T13:03:01;2.20;;;2.00;;
16270;SDS011;8243;49.048;8.396;2023-08-30T13:05:30;2.27;;;2.07;;
16270;SDS011;8243;49.048;8.396;2023-08-30T13:07:57;4.40;;;1.97;;
16270;SDS011;8243;49.048;8.396;2023-08-30T13:10:25;3.40;;;2.00;;
16270;SDS011;8243;49.048;8.396;2023-08-30T13:12:51;3.10;;;1.80;;
16270;SDS011;8243;49.048;8.396;2023-08-30T13:15:17;2.87;;;1.97;;
16270;SDS011;8243;49.048;8.396;2023-08-30T13:17:43;2.97;;;1.60;;
16270;SDS011;8243;49.048;8.396;2023-08-30T13:20:09;2.77;;;1.90;;
16270;SDS011;8243;49.048;8.396;2023-08-30T13:22:36;1.97;;;1.77;;
16270;SDS011;8243;49.048;8.396;2023-08-30T13:25:02;6.70;;;1.90;;
16270;SDS011;8243;49.048;8.396;2023-08-30T13:27:30;2.90;;;1.90;;
16270;SDS011;8243;49.048;8.396;2023-08-30T13:29:56;2.40;;;2.00;;
16270;SDS011;8243;49.048;8.396;2023-08-30T13:32:22;2.67;;;1.70;;
16270;SDS011;8243;49.048;8.396;2023-08-30T13:34:49;2.77;;;1.57;;
16270;SDS011;8243;49.048;8.396;2023-08-30T13:37:15;3.10;;;1.83;;
16270;SDS011;8243;49.048;8.396;2023-08-30T13:39:41;2.87;;;1.93;;
16270;SDS011;8243;49.048;8.396;2023-08-30T13:42:07;2.67;;;1.90;;
16270;SDS011;8243;49.048;8.396;2023-08-30T13:44:33;3.43;;;1.80;;
16270;SDS011;8243;49.048;8.396;2023-08-30T13:47:05;3.73;;;2.00;;
16270;SDS011;8243;49.048;8.396;2023-08-30T13:49:31;2.23;;;1.83;;
16270;SDS011;8243;49.048;8.396;2023-08-30T13:51:57;4.00;;;2.03;;
16270;SDS011;8243;49.048;8.396;2023-08-30T13:54:23;1.73;;;1.63;;
16270;SDS011;8243;49.048;8.396;2023-08-30T13:56:49;2.20;;;1.90;;
16270;SDS011;8243;49.048;8.396;2023-08-30T13:59:16;2.13;;;2.00;;
16270;SDS011;8243;49.048;8.396;2023-08-30T14:01:41;1.90;;;1.70;;
16270;SDS011;8243;49.048;8.396;2023-08-30T14:04:07;2.27;;;2.07;;
16270;SDS011;8243;49.048;8.396;2023-08-30T14:06:33;3.27;;;1.73;;
16270;SDS011;8243;49.048;8.396;2023-08-30T14:08:59;2.03;;;1.83;;
16270;SDS011;8243;49.048;8.396;2023-08-30T14:11:26;3.73;;;1.73;;
16270;SDS011;8243;49.048;8.396;2023-08-30T14:13:51;3.20;;;1.97;;
16270;SDS011;8243;49.048;8.396;2023-08-30T14:16:17;2.40;;;1.80;;
16270;SDS011;8243;49.048;8.396;2023-08-30T14:18:43;1.80;;;1.70;;
16270;SDS011;8243;49.048;8.396;2023-08-30T14:21:09;2.73;;;1.97;;
16270;SDS011;8243;49.048;8.396;2023-08-30T14:23:34;1.90;;;1.67;;
16270;SDS011;8243;49.048;8.396;2023-08-30T14:26:04;3.23;;;2.10;;
16270;SDS011;8243;49.048;8.396;2023-08-30T14:28:35;2.43;;;2.10;;
16270;SDS011;8243;49.048;8.396;2023-08-30T14:31:01;2.33;;;1.63;;
16270;SDS011;8243;49.048;8.396;2023-08-30T14:33:29;1.80;;;1.70;;
16270;SDS011;8243;49.048;8.396;2023-08-30T14:35:54;2.83;;;1.80;;
16270;SDS011;8243;49.048;8.396;2023-08-30T14:38:21;1.67;;;1.57;;
16270;SDS011;8243;49.048;8.396;2023-08-30T14:40:56;1.80;;;1.70;;
16270;SDS011;8243;49.048;8.396;2023-08-30T14:43:27;2.40;;;1.87;;
16270;SDS011;8243;49.048;8.396;2023-08-30T14:45:59;2.57;;;1.70;;
16270;SDS011;8243;49.048;8.396;2023-08-30T14:48:26;2.10;;;1.90;;
16270;SDS011;8243;49.048;8.396;2023-08-30T14:50:52;2.53;;;1.70;;
16270;SDS011;8243;49.048;8.396;2023-08-30T14:53:18;2.53;;;2.13;;
16270;SDS011;8243;49.048;8.396;2023-08-30T14:55:44;3.50;;;1.90;;
16270;SDS011;8243;49.048;8.396;2023-08-30T14:58:11;1.80;;;1.70;;
16270;SDS011;8243;49.048;8.396;2023-08-30T15:00:37;6.47;;;1.70;;
16270;SDS011;8243;49.048;8.396;2023-08-30T15:03:03;2.17;;;1.87;;
16270;SDS011;8243;49.048;8.396;2023-08-30T15:05:28;2.27;;;1.70;;
16270;SDS011;8243;49.048;8.396;2023-08-30T15:07:54;2.07;;;1.87;;